createdAt,value
2018-09-18T00:00:11.326Z,6.17
2018-09-18T00:02:40.103Z,6.10
2018-09-18T00:05:08.903Z,5.97
2018-09-18T00:07:37.680Z,6.67
2018-09-18T00:10:07.503Z,6.80
2018-09-18T00:12:37.976Z,5.70
2018-09-18T00:15:06.820Z,6.23
2018-09-18T00:17:35.643Z,6.33
2018-09-18T00:20:04.990Z,6.20
2018-09-18T00:22:33.871Z,6.17
2018-09-18T00:25:02.790Z,6.53
2018-09-18T00:27:31.568Z,6.23
2018-09-18T00:30:00.451Z,5.83
2018-09-18T00:32:29.306Z,6.43
2018-09-18T00:34:58.111Z,5.93
2018-09-18T00:37:26.863Z,6.20
2018-09-18T00:39:55.628Z,5.93
2018-09-18T00:42:24.412Z,6.23
2018-09-18T00:44:53.178Z,6.00
2018-09-18T00:47:21.975Z,5.87
2018-09-18T00:49:50.748Z,6.07
2018-09-18T00:52:19.570Z,5.30
2018-09-18T00:54:48.399Z,5.73
2018-09-18T00:57:17.244Z,5.60
2018-09-18T00:59:46.030Z,5.33
2018-09-18T01:02:14.852Z,5.33
2018-09-18T01:04:43.657Z,6.00
2018-09-18T01:07:12.450Z,5.83
2018-09-18T01:09:41.290Z,5.33
2018-09-18T01:12:10.219Z,6.83
2018-09-18T01:14:39.083Z,5.70
2018-09-18T01:17:07.898Z,5.83
2018-09-18T01:19:36.671Z,6.07
2018-09-18T01:22:05.510Z,5.17
2018-09-18T01:24:34.375Z,5.70
2018-09-18T01:27:03.293Z,5.67
2018-09-18T01:29:32.084Z,4.97
2018-09-18T01:32:00.854Z,5.80
2018-09-18T01:34:30.024Z,5.50
2018-09-18T01:36:58.910Z,5.33
2018-09-18T01:39:27.670Z,6.00
2018-09-18T01:41:56.567Z,5.67
2018-09-18T01:44:25.354Z,6.17
2018-09-18T01:46:54.101Z,6.10
2018-09-18T01:49:22.945Z,5.27
2018-09-18T01:51:51.920Z,5.43
2018-09-18T01:54:20.792Z,5.53
2018-09-18T01:56:49.660Z,5.50
2018-09-18T01:59:18.610Z,5.43
2018-09-18T02:01:47.406Z,5.33
2018-09-18T02:04:16.259Z,5.10
2018-09-18T02:06:45.030Z,5.00
2018-09-18T02:09:13.870Z,4.23
2018-09-18T02:11:42.764Z,5.13
2018-09-18T02:14:13.212Z,4.70
2018-09-18T02:16:42.689Z,4.87
2018-09-18T02:19:11.518Z,5.27
2018-09-18T02:21:41.373Z,4.37
2018-09-18T02:24:10.203Z,4.60
2018-09-18T02:26:39.363Z,4.57
2018-09-18T02:29:08.175Z,5.03
2018-09-18T02:31:37.069Z,4.17
2018-09-18T02:34:06.225Z,4.20
2018-09-18T02:36:34.997Z,6.33
2018-09-18T02:39:05.175Z,5.23
2018-09-18T02:41:33.986Z,5.63
2018-09-18T02:44:02.787Z,5.33
2018-09-18T02:46:31.745Z,5.63
2018-09-18T02:49:00.516Z,6.50
2018-09-18T02:51:29.314Z,5.93
2018-09-18T02:53:58.317Z,5.17
2018-09-18T02:56:27.098Z,5.33
2018-09-18T02:58:55.966Z,4.63
2018-09-18T03:01:24.782Z,4.60
2018-09-18T03:03:53.589Z,4.37
2018-09-18T03:06:22.376Z,4.93
2018-09-18T03:08:51.238Z,4.60
2018-09-18T03:11:20.059Z,5.57
2018-09-18T03:13:48.994Z,6.33
2018-09-18T03:16:17.757Z,5.13
2018-09-18T03:18:46.508Z,4.60
2018-09-18T03:21:15.341Z,5.33
2018-09-18T03:23:44.123Z,4.53
2018-09-18T03:26:12.952Z,5.67
2018-09-18T03:28:41.751Z,4.80
2018-09-18T03:31:10.541Z,5.43
2018-09-18T03:33:39.351Z,4.17
2018-09-18T03:36:08.310Z,3.73
2018-09-18T03:38:37.083Z,4.77
2018-09-18T03:41:05.915Z,5.37
2018-09-18T03:43:34.749Z,4.50
2018-09-18T03:46:03.596Z,4.50
2018-09-18T03:48:32.432Z,4.60
2018-09-18T03:51:01.195Z,5.60
2018-09-18T03:53:29.960Z,4.60
2018-09-18T03:55:58.756Z,4.80
2018-09-18T03:58:27.562Z,4.57
2018-09-18T04:00:56.439Z,5.03
2018-09-18T04:03:25.202Z,4.70
2018-09-18T04:05:54.027Z,4.20
2018-09-18T04:08:22.775Z,4.77
2018-09-18T04:10:51.566Z,4.23
2018-09-18T04:13:20.354Z,4.87
2018-09-18T04:15:49.192Z,4.40
2018-09-18T04:18:20.583Z,4.33
2018-09-18T04:20:49.337Z,4.63
2018-09-18T04:23:18.241Z,4.43
2018-09-18T04:25:47.022Z,5.37
2018-09-18T04:28:15.758Z,4.67
2018-09-18T04:30:44.528Z,4.80
2018-09-18T04:33:13.281Z,4.90
2018-09-18T04:35:42.080Z,4.93
2018-09-18T04:38:10.942Z,4.80
2018-09-18T04:40:39.738Z,4.80
2018-09-18T04:43:08.612Z,4.60
2018-09-18T04:45:37.375Z,5.10
2018-09-18T04:48:06.245Z,5.37
2018-09-18T04:50:35.025Z,6.20
2018-09-18T04:53:03.867Z,5.37
2018-09-18T04:55:32.822Z,5.10
2018-09-18T04:58:01.661Z,5.20
2018-09-18T05:00:30.510Z,5.73
2018-09-18T05:02:59.426Z,5.30
2018-09-18T05:05:28.199Z,4.97
2018-09-18T05:07:56.978Z,5.27
2018-09-18T05:10:25.809Z,5.97
2018-09-18T05:12:54.576Z,6.57
2018-09-18T05:15:23.370Z,6.00
2018-09-18T05:17:52.140Z,6.23
2018-09-18T05:20:20.976Z,7.67
2018-09-18T05:22:49.752Z,6.37
2018-09-18T05:25:18.567Z,6.73
2018-09-18T05:27:47.343Z,7.07
2018-09-18T05:30:16.143Z,6.63
2018-09-18T05:32:44.958Z,7.73
2018-09-18T05:35:13.798Z,7.40
2018-09-18T05:37:42.594Z,7.17
2018-09-18T05:40:11.362Z,6.20
2018-09-18T05:42:40.462Z,6.30
2018-09-18T05:45:09.384Z,6.10
2018-09-18T05:47:38.172Z,6.00
2018-09-18T05:50:06.985Z,6.37
2018-09-18T05:52:35.738Z,5.73
2018-09-18T05:55:04.624Z,5.87
2018-09-18T05:57:33.390Z,6.27
2018-09-18T06:00:02.199Z,5.73
2018-09-18T06:02:31.000Z,5.03
2018-09-18T06:04:59.788Z,7.03
2018-09-18T06:07:28.560Z,6.33
2018-09-18T06:09:57.376Z,6.13
2018-09-18T06:12:26.169Z,6.33
2018-09-18T06:14:55.139Z,6.53
2018-09-18T06:17:23.936Z,7.00
2018-09-18T06:19:53.018Z,6.73
2018-09-18T06:22:21.790Z,6.27
2018-09-18T06:24:50.550Z,7.10
2018-09-18T06:27:19.335Z,7.03
2018-09-18T06:29:48.187Z,7.10
2018-09-18T06:32:16.975Z,5.80
2018-09-18T06:34:45.745Z,6.53
2018-09-18T06:37:14.485Z,6.50
2018-09-18T06:39:43.293Z,5.77
2018-09-18T06:42:12.087Z,6.00
2018-09-18T06:44:41.051Z,7.50
2018-09-18T06:47:09.906Z,7.17
2018-09-18T06:49:38.728Z,5.77
2018-09-18T06:52:07.541Z,7.07
2018-09-18T06:54:36.449Z,5.30
2018-09-18T06:57:06.631Z,6.60
2018-09-18T06:59:35.724Z,6.33
2018-09-18T07:02:04.514Z,5.90
2018-09-18T07:04:33.304Z,5.27
2018-09-18T07:07:02.102Z,5.93
2018-09-18T07:09:30.915Z,5.87
2018-09-18T07:11:59.707Z,5.30
2018-09-18T07:14:28.481Z,5.97
2018-09-18T07:16:57.577Z,5.80
2018-09-18T07:19:26.424Z,5.03
2018-09-18T07:21:55.307Z,5.07
2018-09-18T07:24:24.075Z,4.37
2018-09-18T07:26:52.843Z,4.30
2018-09-18T07:29:21.718Z,5.07
2018-09-18T07:31:50.489Z,4.93
2018-09-18T07:34:19.306Z,6.03
2018-09-18T07:36:48.252Z,5.20
2018-09-18T07:39:17.044Z,4.70
2018-09-18T07:41:45.899Z,4.83
2018-09-18T07:44:14.679Z,5.07
2018-09-18T07:46:43.511Z,5.27
2018-09-18T07:49:12.291Z,4.90
2018-09-18T07:51:41.051Z,5.70
2018-09-18T07:54:09.916Z,6.97
2018-09-18T07:56:38.701Z,6.13
2018-09-18T07:59:07.499Z,5.03
2018-09-18T08:01:36.344Z,5.53
2018-09-18T08:04:05.172Z,4.97
2018-09-18T08:06:34.020Z,5.83
2018-09-18T08:09:02.850Z,5.50
2018-09-18T08:11:31.651Z,7.63
2018-09-18T08:14:00.457Z,9.53
2018-09-18T08:16:29.301Z,9.53
2018-09-18T08:18:58.305Z,9.07
2018-09-18T08:21:27.183Z,5.37
2018-09-18T08:23:56.382Z,6.13
2018-09-18T08:26:25.165Z,5.43
2018-09-18T08:28:54.565Z,5.37
2018-09-18T08:31:23.447Z,5.63
2018-09-18T08:33:52.355Z,5.57
2018-09-18T08:36:21.157Z,7.93
2018-09-18T08:38:49.983Z,6.40
2018-09-18T08:41:18.907Z,8.70
2018-09-18T08:43:47.698Z,6.20
2018-09-18T08:46:16.527Z,6.10
2018-09-18T08:48:50.639Z,6.47
2018-09-18T08:51:19.597Z,5.57
2018-09-18T08:53:48.479Z,6.03
2018-09-18T08:56:17.424Z,6.60
2018-09-18T08:58:46.264Z,6.40
2018-09-18T09:01:15.077Z,6.23
2018-09-18T09:03:44.109Z,5.50
2018-09-18T09:06:13.097Z,6.07
2018-09-18T09:08:42.150Z,8.57
2018-09-18T09:11:11.053Z,6.77
2018-09-18T09:13:39.882Z,5.90
2018-09-18T09:16:08.677Z,5.53
2018-09-18T09:18:37.571Z,5.43
2018-09-18T09:21:06.678Z,6.33
2018-09-18T09:23:35.576Z,5.83
2018-09-18T09:26:04.412Z,5.70
2018-09-18T09:28:33.217Z,5.30
2018-09-18T09:31:02.297Z,5.83
2018-09-18T09:33:31.082Z,5.23
2018-09-18T09:36:00.888Z,5.83
2018-09-18T09:38:29.666Z,4.80
2018-09-18T09:40:58.447Z,5.37
2018-09-18T09:43:27.339Z,6.77
2018-09-18T09:45:56.075Z,6.47
2018-09-18T09:48:24.832Z,6.90
2018-09-18T09:50:53.625Z,6.87
2018-09-18T09:53:22.419Z,7.10
2018-09-18T09:55:51.402Z,7.57
2018-09-18T09:58:20.280Z,7.23
2018-09-18T10:00:54.390Z,6.70
2018-09-18T10:03:23.195Z,8.17
2018-09-18T10:05:51.971Z,6.00
2018-09-18T10:08:20.771Z,6.30
2018-09-18T10:10:49.670Z,8.57
2018-09-18T10:13:18.540Z,7.00
2018-09-18T10:15:47.321Z,7.60
2018-09-18T10:18:16.159Z,7.37
2018-09-18T10:20:45.075Z,7.13
2018-09-18T10:23:13.927Z,8.07
2018-09-18T10:25:42.748Z,7.33
2018-09-18T10:28:11.546Z,7.10
2018-09-18T10:30:40.422Z,7.50
2018-09-18T10:33:09.366Z,7.73
2018-09-18T10:35:38.304Z,7.00
2018-09-18T10:38:07.149Z,7.17
2018-09-18T10:40:36.802Z,7.20
2018-09-18T10:43:05.828Z,6.90
2018-09-18T10:45:34.588Z,8.23
2018-09-18T10:48:04.639Z,10.10
2018-09-18T10:50:33.712Z,7.97
2018-09-18T10:53:02.463Z,7.77
2018-09-18T10:55:32.036Z,6.97
2018-09-18T10:58:00.781Z,7.23
2018-09-18T11:00:29.625Z,6.27
2018-09-18T11:02:58.518Z,7.33
2018-09-18T11:05:28.792Z,6.57
2018-09-18T11:07:57.674Z,6.53
2018-09-18T11:10:26.610Z,8.67
2018-09-18T11:12:55.408Z,13.90
2018-09-18T11:15:24.264Z,6.47
2018-09-18T11:17:53.207Z,16.07
2018-09-18T11:20:22.012Z,7.13
2018-09-18T11:22:50.989Z,7.40
2018-09-18T11:25:19.989Z,6.07
2018-09-18T11:27:48.943Z,5.87
2018-09-18T11:30:19.145Z,5.60
2018-09-18T11:32:48.038Z,7.23
2018-09-18T11:35:17.036Z,6.20
2018-09-18T11:37:45.826Z,5.60
2018-09-18T11:40:14.617Z,5.37
2018-09-18T11:42:43.490Z,6.03
2018-09-18T11:45:12.288Z,4.83
2018-09-18T11:47:41.130Z,5.57
2018-09-18T11:50:10.114Z,5.70
2018-09-18T11:52:38.952Z,6.00
2018-09-18T11:55:07.950Z,6.00
2018-09-18T11:57:36.730Z,6.63
2018-09-18T12:00:09.108Z,6.97
2018-09-18T12:02:38.346Z,7.73
2018-09-18T12:05:07.924Z,7.47
2018-09-18T12:07:36.856Z,6.30
2018-09-18T12:10:05.765Z,5.90
2018-09-18T12:12:34.578Z,6.27
2018-09-18T12:15:03.418Z,6.70
2018-09-18T12:17:35.242Z,5.50
2018-09-18T12:20:04.137Z,6.97
2018-09-18T12:22:33.082Z,5.83
2018-09-18T12:25:01.923Z,5.50
2018-09-18T12:27:30.793Z,6.10
2018-09-18T12:29:59.621Z,5.73
2018-09-18T12:32:28.447Z,6.47
2018-09-18T12:34:57.237Z,6.77
2018-09-18T12:37:26.039Z,6.63
2018-09-18T12:39:54.846Z,6.50
2018-09-18T12:42:23.756Z,6.00
2018-09-18T12:44:52.751Z,23.93
2018-09-18T12:47:21.563Z,27.50
2018-09-18T12:49:50.514Z,5.97
2018-09-18T12:52:19.374Z,6.33
2018-09-18T12:54:48.198Z,5.97
2018-09-18T12:57:17.172Z,5.67
2018-09-18T12:59:46.065Z,6.30
2018-09-18T13:02:15.021Z,6.30
2018-09-18T13:04:44.111Z,6.83
2018-09-18T13:07:12.933Z,6.30
2018-09-18T13:09:41.808Z,5.93
2018-09-18T13:12:10.562Z,5.17
2018-09-18T13:14:39.289Z,4.73
2018-09-18T13:17:08.298Z,6.03
2018-09-18T13:19:37.385Z,5.83
2018-09-18T13:22:06.360Z,5.47
2018-09-18T13:24:35.200Z,7.53
2018-09-18T13:27:04.123Z,6.07
2018-09-18T13:29:32.958Z,6.90
2018-09-18T13:32:01.778Z,5.90
2018-09-18T13:34:30.568Z,5.87
2018-09-18T13:36:59.363Z,5.27
2018-09-18T13:39:28.174Z,5.53
2018-09-18T13:41:57.004Z,5.30
2018-09-18T13:44:25.876Z,5.10
2018-09-18T13:46:54.688Z,5.13
2018-09-18T13:49:23.546Z,5.20
2018-09-18T13:51:52.527Z,5.40
2018-09-18T13:54:21.565Z,5.80
2018-09-18T13:56:50.496Z,5.30
2018-09-18T13:59:19.431Z,5.20
2018-09-18T14:01:48.529Z,5.53
2018-09-18T14:04:17.691Z,5.90
2018-09-18T14:06:46.691Z,5.60
2018-09-18T14:09:15.553Z,6.07
2018-09-18T14:11:44.504Z,6.43
2018-09-18T14:14:13.435Z,5.93
2018-09-18T14:16:42.429Z,5.57
2018-09-18T14:19:11.279Z,5.13
2018-09-18T14:21:40.148Z,5.07
2018-09-18T14:24:08.983Z,5.70
2018-09-18T14:26:37.925Z,6.97
2018-09-18T14:29:06.836Z,6.60
2018-09-18T14:31:35.726Z,6.83
2018-09-18T14:34:04.570Z,8.10
2018-09-18T14:36:33.408Z,10.77
2018-09-18T14:39:02.664Z,6.17
2018-09-18T14:41:31.549Z,6.60
2018-09-18T14:44:00.354Z,6.20
2018-09-18T14:46:29.119Z,6.20
2018-09-18T14:48:57.891Z,5.53
2018-09-18T14:51:26.722Z,5.83
2018-09-18T14:53:55.542Z,5.40
2018-09-18T14:56:24.339Z,5.80
2018-09-18T14:58:53.181Z,5.60
2018-09-18T15:01:21.934Z,5.90
2018-09-18T15:03:50.724Z,6.13
2018-09-18T15:06:19.487Z,5.90
2018-09-18T15:08:48.343Z,6.60
2018-09-18T15:11:17.280Z,5.80
2018-09-18T15:13:46.099Z,6.53
2018-09-18T15:16:14.868Z,5.80
2018-09-18T15:18:43.743Z,7.03
2018-09-18T15:21:12.563Z,6.33
2018-09-18T15:23:41.518Z,6.40
2018-09-18T15:26:10.315Z,6.07
2018-09-18T15:28:39.254Z,6.37
2018-09-18T15:31:08.078Z,6.17
2018-09-18T15:33:37.055Z,6.30
2018-09-18T15:36:05.999Z,5.80
2018-09-18T15:38:34.850Z,6.70
2018-09-18T15:41:03.651Z,6.37
2018-09-18T15:43:33.279Z,6.03
2018-09-18T15:46:02.246Z,5.83
2018-09-18T15:48:31.498Z,5.97
2018-09-18T15:51:00.495Z,5.93
2018-09-18T15:53:29.286Z,5.70
2018-09-18T15:55:58.259Z,6.70
2018-09-18T15:58:27.114Z,7.30
2018-09-18T16:00:55.956Z,6.37
2018-09-18T16:03:24.835Z,6.60
2018-09-18T16:05:53.597Z,6.43
2018-09-18T16:08:22.427Z,6.50
2018-09-18T16:10:51.176Z,6.43
2018-09-18T16:13:20.023Z,6.27
2018-09-18T16:15:48.893Z,6.13
2018-09-18T16:18:17.691Z,5.93
2018-09-18T16:20:46.479Z,6.43
2018-09-18T16:23:15.333Z,6.43
2018-09-18T16:25:44.225Z,5.67
2018-09-18T16:28:13.033Z,5.90
2018-09-18T16:30:41.970Z,6.07
2018-09-18T16:33:10.966Z,6.00
2018-09-18T16:35:39.837Z,6.20
2018-09-18T16:38:08.770Z,6.30
2018-09-18T16:40:37.659Z,6.30
2018-09-18T16:43:06.678Z,6.60
2018-09-18T16:45:35.531Z,6.90
2018-09-18T16:48:04.453Z,6.77
2018-09-18T16:50:33.255Z,6.43
2018-09-18T16:53:02.257Z,7.03
2018-09-18T16:55:31.210Z,6.93
2018-09-18T16:58:00.025Z,6.53
2018-09-18T17:00:28.859Z,6.87
2018-09-18T17:02:58.139Z,7.27
2018-09-18T17:05:27.055Z,7.23
2018-09-18T17:07:56.659Z,8.20
2018-09-18T17:10:25.537Z,7.57
2018-09-18T17:12:57.237Z,7.53
2018-09-18T17:15:26.131Z,8.70
2018-09-18T17:17:54.900Z,8.07
2018-09-18T17:20:23.734Z,7.90
2018-09-18T17:22:52.515Z,7.57
2018-09-18T17:25:21.398Z,7.80
2018-09-18T17:27:50.299Z,7.50
2018-09-18T17:30:19.182Z,9.13
2018-09-18T17:32:48.131Z,8.17
2018-09-18T17:35:16.901Z,8.00
2018-09-18T17:37:45.669Z,7.87
2018-09-18T17:40:14.463Z,8.80
2018-09-18T17:42:44.360Z,7.87
2018-09-18T17:45:13.118Z,8.40
2018-09-18T17:47:41.992Z,8.50
2018-09-18T17:50:11.022Z,8.53
2018-09-18T17:52:40.444Z,8.53
2018-09-18T17:55:09.265Z,8.60
2018-09-18T17:57:38.072Z,8.23
2018-09-18T18:00:07.553Z,8.10
2018-09-18T18:02:36.310Z,8.03
2018-09-18T18:05:05.153Z,8.27
2018-09-18T18:07:33.902Z,7.77
2018-09-18T18:10:02.756Z,8.60
2018-09-18T18:12:31.722Z,7.60
2018-09-18T18:15:00.508Z,7.50
2018-09-18T18:17:29.313Z,8.27
2018-09-18T18:19:58.334Z,7.87
2018-09-18T18:22:27.208Z,8.00
2018-09-18T18:24:56.012Z,8.43
2018-09-18T18:27:24.826Z,8.23
2018-09-18T18:29:53.614Z,8.83
2018-09-18T18:32:22.431Z,8.57
2018-09-18T18:34:51.219Z,7.70
2018-09-18T18:37:20.049Z,8.73
2018-09-18T18:39:48.796Z,8.77
2018-09-18T18:42:17.603Z,9.23
2018-09-18T18:44:46.799Z,9.20
2018-09-18T18:47:15.594Z,9.27
2018-09-18T18:49:44.405Z,9.20
2018-09-18T18:52:13.219Z,7.80
2018-09-18T18:54:42.067Z,7.60
2018-09-18T18:57:10.973Z,8.27
2018-09-18T18:59:39.722Z,7.30
2018-09-18T19:02:08.500Z,7.60
2018-09-18T19:04:37.373Z,7.90
2018-09-18T19:07:06.156Z,8.90
2018-09-18T19:09:35.055Z,8.27
2018-09-18T19:12:03.828Z,7.73
2018-09-18T19:14:32.647Z,8.90
2018-09-18T19:17:01.395Z,8.13
2018-09-18T19:19:30.200Z,9.47
2018-09-18T19:21:58.979Z,8.27
2018-09-18T19:24:27.785Z,8.77
2018-09-18T19:26:56.646Z,8.30
2018-09-18T19:29:25.438Z,8.37
2018-09-18T19:31:54.422Z,7.73
2018-09-18T19:34:23.221Z,7.53
2018-09-18T19:36:52.168Z,8.70
2018-09-18T19:39:21.125Z,8.90
2018-09-18T19:41:50.027Z,7.77
2018-09-18T19:44:18.832Z,7.70
2018-09-18T19:46:47.605Z,8.20
2018-09-18T19:49:16.467Z,7.50
2018-09-18T19:51:45.210Z,8.07
2018-09-18T19:54:13.993Z,10.00
2018-09-18T19:56:46.066Z,7.67
2018-09-18T19:59:14.952Z,9.37
2018-09-18T20:01:43.960Z,7.63
2018-09-18T20:04:12.952Z,7.67
2018-09-18T20:06:41.697Z,7.63
2018-09-18T20:09:11.626Z,9.40
2018-09-18T20:11:40.598Z,7.87
2018-09-18T20:14:09.344Z,7.37
2018-09-18T20:16:38.123Z,7.73
2018-09-18T20:19:06.976Z,7.60
2018-09-18T20:21:35.774Z,7.53
2018-09-18T20:24:04.534Z,6.77
2018-09-18T20:26:33.324Z,7.30
2018-09-18T20:29:02.119Z,8.00
2018-09-18T20:31:30.943Z,8.43
2018-09-18T20:33:59.725Z,8.47
2018-09-18T20:36:28.726Z,9.40
2018-09-18T20:38:57.750Z,9.73
2018-09-18T20:41:26.537Z,8.50
2018-09-18T20:43:55.423Z,9.27
2018-09-18T20:46:24.555Z,8.03
2018-09-18T20:48:53.575Z,8.17
2018-09-18T20:51:22.379Z,7.63
2018-09-18T20:53:51.143Z,7.80
2018-09-18T20:56:19.895Z,8.77
2018-09-18T20:58:48.721Z,9.33
2018-09-18T21:01:17.550Z,9.00
2018-09-18T21:03:46.313Z,8.80
2018-09-18T21:06:15.150Z,8.87
2018-09-18T21:08:43.926Z,8.27
2018-09-18T21:11:13.255Z,7.40
2018-09-18T21:13:42.108Z,8.20
2018-09-18T21:16:10.899Z,8.80
2018-09-18T21:18:39.754Z,8.17
2018-09-18T21:21:08.542Z,8.13
2018-09-18T21:23:37.370Z,8.57
2018-09-18T21:26:08.375Z,8.27
2018-09-18T21:28:37.207Z,9.33
2018-09-18T21:31:06.356Z,7.73
2018-09-18T21:33:35.185Z,7.47
2018-09-18T21:36:03.982Z,7.87
2018-09-18T21:38:33.209Z,7.77
2018-09-18T21:41:01.993Z,8.00
2018-09-18T21:43:31.410Z,7.00
2018-09-18T21:46:00.148Z,7.70
2018-09-18T21:48:28.956Z,7.93
2018-09-18T21:50:57.726Z,7.07
2018-09-18T21:53:26.529Z,7.53
2018-09-18T21:55:55.302Z,7.63
2018-09-18T21:58:24.554Z,6.90
2018-09-18T22:00:53.391Z,6.87
2018-09-18T22:03:22.152Z,7.23
2018-09-18T22:05:50.882Z,8.10
2018-09-18T22:08:19.680Z,8.43
2018-09-18T22:10:48.467Z,7.33
2018-09-18T22:13:17.228Z,8.63
2018-09-18T22:15:45.982Z,8.53
2018-09-18T22:18:14.756Z,8.07
2018-09-18T22:20:43.587Z,7.63
2018-09-18T22:23:12.347Z,7.57
2018-09-18T22:25:41.100Z,7.73
2018-09-18T22:28:09.870Z,7.43
2018-09-18T22:30:38.633Z,7.43
2018-09-18T22:33:07.406Z,7.90
2018-09-18T22:35:36.156Z,6.83
2018-09-18T22:38:04.945Z,6.50
2018-09-18T22:40:33.694Z,6.77
2018-09-18T22:43:02.497Z,7.50
2018-09-18T22:45:31.407Z,6.97
2018-09-18T22:48:00.172Z,6.70
2018-09-18T22:50:28.952Z,6.47
2018-09-18T22:52:57.717Z,6.47
2018-09-18T22:55:26.489Z,6.50
2018-09-18T22:57:55.272Z,6.27
2018-09-18T23:00:24.042Z,6.40
2018-09-18T23:02:52.806Z,6.10
2018-09-18T23:05:21.539Z,5.50
2018-09-18T23:07:50.333Z,5.70
2018-09-18T23:10:19.084Z,5.00
2018-09-18T23:12:47.873Z,5.50
2018-09-18T23:15:16.655Z,5.10
2018-09-18T23:17:45.461Z,4.63
2018-09-18T23:20:14.308Z,5.17
2018-09-18T23:22:43.156Z,5.03
2018-09-18T23:25:11.986Z,4.93
2018-09-18T23:27:40.718Z,5.07
2018-09-18T23:30:09.742Z,5.53
2018-09-18T23:32:38.490Z,5.83
2018-09-18T23:35:07.296Z,5.03
2018-09-18T23:37:36.087Z,5.13
2018-09-18T23:40:05.303Z,5.00
2018-09-18T23:42:34.127Z,5.17
2018-09-18T23:45:02.994Z,4.53
2018-09-18T23:47:31.745Z,4.63
2018-09-18T23:50:00.518Z,4.40
2018-09-18T23:52:29.302Z,4.37
2018-09-18T23:54:58.124Z,4.10
2018-09-18T23:57:26.903Z,4.57
2018-09-18T23:59:55.667Z,4.70
